createdAt,value
2018-05-06T00:01:43.687Z,15.67
2018-05-06T00:04:11.152Z,15.69
2018-05-06T00:06:38.616Z,15.86
2018-05-06T00:09:06.092Z,15.96
2018-05-06T00:11:33.563Z,15.97
2018-05-06T00:14:01.064Z,15.93
2018-05-06T00:16:28.539Z,16.08
2018-05-06T00:18:56.027Z,16.02
2018-05-06T00:21:23.487Z,16.07
2018-05-06T00:23:50.951Z,16.07
2018-05-06T00:26:18.428Z,15.99
2018-05-06T00:28:45.894Z,16.00
2018-05-06T00:31:13.393Z,15.93
2018-05-06T00:33:40.924Z,15.79
2018-05-06T00:36:08.585Z,15.94
2018-05-06T00:38:36.068Z,15.97
2018-05-06T00:41:03.539Z,15.95
2018-05-06T00:43:31.016Z,16.01
2018-05-06T00:45:58.480Z,15.96
2018-05-06T00:48:25.946Z,15.97
2018-05-06T00:50:53.419Z,15.87
2018-05-06T00:53:20.888Z,15.84
2018-05-06T00:55:48.371Z,15.75
2018-05-06T00:58:15.835Z,15.74
2018-05-06T01:00:43.296Z,15.67
2018-05-06T01:03:10.776Z,15.67
2018-05-06T01:05:38.235Z,15.60
2018-05-06T01:08:05.716Z,15.51
2018-05-06T01:10:33.175Z,15.45
2018-05-06T01:13:00.653Z,15.40
2018-05-06T01:15:28.135Z,15.43
2018-05-06T01:17:55.590Z,15.40
2018-05-06T01:20:23.068Z,15.37
2018-05-06T01:22:50.540Z,15.37
2018-05-06T01:25:18.011Z,15.26
2018-05-06T01:27:45.569Z,15.25
2018-05-06T01:30:13.024Z,15.21
2018-05-06T01:32:40.520Z,15.09
2018-05-06T01:35:07.984Z,15.03
2018-05-06T01:37:35.453Z,15.01
2018-05-06T01:40:02.939Z,14.86
2018-05-06T01:42:30.404Z,14.75
2018-05-06T01:44:57.884Z,14.55
2018-05-06T01:47:25.340Z,14.43
2018-05-06T01:49:52.824Z,14.39
2018-05-06T01:52:20.301Z,14.61
2018-05-06T01:54:47.766Z,14.42
2018-05-06T01:57:15.259Z,14.27
2018-05-06T01:59:42.725Z,14.23
2018-05-06T02:02:10.209Z,14.09
2018-05-06T02:04:37.686Z,13.92
2018-05-06T02:07:05.179Z,13.94
2018-05-06T02:09:32.650Z,13.95
2018-05-06T02:12:00.216Z,13.94
2018-05-06T02:14:27.724Z,13.81
2018-05-06T02:16:55.195Z,13.84
2018-05-06T02:19:22.790Z,13.85
2018-05-06T02:21:50.254Z,13.75
2018-05-06T02:24:17.746Z,13.62
2018-05-06T02:26:45.221Z,13.64
2018-05-06T02:29:12.676Z,13.69
2018-05-06T02:31:40.157Z,13.59
2018-05-06T02:34:07.629Z,13.66
2018-05-06T02:36:35.087Z,13.57
2018-05-06T02:39:02.568Z,13.64
2018-05-06T02:41:30.032Z,13.71
2018-05-06T02:43:57.512Z,13.69
2018-05-06T02:46:24.974Z,13.81
2018-05-06T02:48:52.471Z,13.74
2018-05-06T02:51:19.924Z,13.72
2018-05-06T02:53:47.375Z,13.78
2018-05-06T02:56:14.844Z,13.80
2018-05-06T02:58:42.309Z,13.82
2018-05-06T03:01:09.789Z,13.81
2018-05-06T03:03:37.244Z,13.81
2018-05-06T03:06:04.703Z,13.74
2018-05-06T03:08:32.176Z,13.74
2018-05-06T03:10:59.636Z,13.65
2018-05-06T03:13:27.106Z,13.65
2018-05-06T03:15:54.562Z,13.70
2018-05-06T03:18:22.024Z,13.68
2018-05-06T03:20:49.504Z,13.74
2018-05-06T03:23:16.955Z,13.73
2018-05-06T03:25:44.429Z,13.61
2018-05-06T03:28:11.995Z,13.58
2018-05-06T03:30:39.451Z,13.63
2018-05-06T03:33:07.012Z,13.57
2018-05-06T03:35:34.468Z,13.58
2018-05-06T03:38:01.961Z,13.56
2018-05-06T03:40:29.414Z,13.61
2018-05-06T03:42:56.871Z,13.55
2018-05-06T03:45:24.340Z,13.53
2018-05-06T03:47:52.747Z,13.60
2018-05-06T03:50:20.224Z,13.64
2018-05-06T03:52:47.705Z,13.72
2018-05-06T03:55:15.368Z,13.63
2018-05-06T03:57:54.627Z,13.83
2018-05-06T04:00:33.838Z,13.80
2018-05-06T04:03:01.314Z,13.69
2018-05-06T04:05:28.776Z,13.72
2018-05-06T04:07:56.319Z,13.69
2018-05-06T04:10:23.771Z,13.58
2018-05-06T04:12:51.228Z,13.57
2018-05-06T04:15:18.700Z,13.54
2018-05-06T04:17:46.152Z,13.48
2018-05-06T04:20:13.637Z,13.46
2018-05-06T04:22:41.098Z,13.53
2018-05-06T04:25:09.152Z,13.52
2018-05-06T04:27:37.128Z,13.56
2018-05-06T04:30:04.617Z,13.49
2018-05-06T04:32:32.104Z,13.59
2018-05-06T04:34:59.555Z,13.59
2018-05-06T04:37:27.048Z,13.66
2018-05-06T04:39:54.519Z,13.62
2018-05-06T04:42:21.988Z,13.62
2018-05-06T04:44:49.456Z,13.74
2018-05-06T04:47:16.910Z,13.70
2018-05-06T04:49:44.379Z,13.70
2018-05-06T04:52:11.842Z,13.75
2018-05-06T04:54:39.304Z,13.92
2018-05-06T04:57:06.780Z,13.88
2018-05-06T04:59:34.236Z,13.80
2018-05-06T05:02:01.708Z,13.82
2018-05-06T05:04:29.176Z,13.93
2018-05-06T05:06:56.674Z,13.91
2018-05-06T05:09:24.140Z,13.99
2018-05-06T05:11:51.589Z,14.08
2018-05-06T05:14:19.065Z,14.15
2018-05-06T05:16:46.523Z,14.19
2018-05-06T05:19:14.012Z,14.27
2018-05-06T05:21:41.479Z,14.37
2018-05-06T05:24:08.927Z,14.56
2018-05-06T05:26:36.603Z,14.55
2018-05-06T05:29:04.348Z,14.69
2018-05-06T05:31:31.836Z,14.76
2018-05-06T05:33:59.291Z,14.83
2018-05-06T05:36:26.739Z,15.20
2018-05-06T05:38:54.214Z,14.94
2018-05-06T05:41:21.682Z,14.89
2018-05-06T05:43:49.158Z,15.02
2018-05-06T05:46:16.620Z,15.02
2018-05-06T05:48:44.072Z,15.22
2018-05-06T05:51:11.549Z,15.25
2018-05-06T05:53:39.008Z,15.43
2018-05-06T05:56:06.490Z,15.38
2018-05-06T05:58:33.962Z,15.43
2018-05-06T06:01:01.421Z,15.52
2018-05-06T06:03:29.435Z,15.53
2018-05-06T06:05:56.892Z,15.83
2018-05-06T06:08:24.385Z,15.75
2018-05-06T06:10:51.860Z,15.80
2018-05-06T06:13:19.328Z,16.09
2018-05-06T06:15:46.787Z,16.43
2018-05-06T06:18:14.239Z,16.40
2018-05-06T06:20:41.710Z,16.36
2018-05-06T06:23:09.171Z,16.84
2018-05-06T06:25:36.632Z,16.73
2018-05-06T06:28:04.244Z,16.87
2018-05-06T06:30:31.747Z,16.85
2018-05-06T06:32:59.216Z,16.66
2018-05-06T06:35:26.668Z,16.73
2018-05-06T06:37:54.141Z,17.55
2018-05-06T06:40:21.596Z,16.91
2018-05-06T06:42:49.083Z,17.07
2018-05-06T06:45:16.533Z,17.18
2018-05-06T06:47:43.995Z,17.11
2018-05-06T06:50:11.459Z,17.25
2018-05-06T06:52:38.924Z,17.36
2018-05-06T06:55:06.408Z,17.66
2018-05-06T06:57:33.872Z,17.63
2018-05-06T07:00:01.334Z,17.69
2018-05-06T07:02:28.811Z,17.67
2018-05-06T07:04:56.273Z,17.71
2018-05-06T07:07:23.761Z,17.62
2018-05-06T07:09:51.219Z,17.87
2018-05-06T07:12:18.684Z,17.61
2018-05-06T07:14:46.164Z,17.73
2018-05-06T07:17:13.634Z,17.99
2018-05-06T07:19:41.262Z,18.11
2018-05-06T07:22:08.719Z,18.27
2018-05-06T07:24:36.194Z,18.21
2018-05-06T07:27:03.663Z,18.43
2018-05-06T07:29:31.110Z,18.41
2018-05-06T07:31:58.576Z,18.26
2018-05-06T07:34:26.152Z,18.08
2018-05-06T07:36:54.981Z,18.42
2018-05-06T07:39:22.558Z,18.18
2018-05-06T07:41:50.038Z,18.06
2018-05-06T07:44:17.524Z,18.51
2018-05-06T07:46:44.983Z,18.50
2018-05-06T07:49:12.468Z,18.73
2018-05-06T07:51:39.928Z,18.84
2018-05-06T07:54:07.388Z,19.03
2018-05-06T07:56:34.860Z,18.68
2018-05-06T07:59:02.315Z,18.54
2018-05-06T08:01:29.796Z,18.92
2018-05-06T08:03:57.271Z,19.16
2018-05-06T08:06:24.741Z,19.33
2018-05-06T08:08:52.212Z,19.32
2018-05-06T08:11:19.688Z,19.33
2018-05-06T08:13:47.166Z,19.49
2018-05-06T08:16:14.654Z,19.67
2018-05-06T08:18:42.115Z,19.48
2018-05-06T08:21:09.593Z,19.40
2018-05-06T08:23:37.049Z,19.53
2018-05-06T08:26:04.531Z,20.00
2018-05-06T08:28:31.994Z,19.75
2018-05-06T08:30:59.781Z,19.92
2018-05-06T08:33:27.251Z,20.21
2018-05-06T08:35:54.721Z,20.30
2018-05-06T08:38:22.224Z,20.31
2018-05-06T08:40:49.689Z,20.42
2018-05-06T08:43:17.160Z,20.31
2018-05-06T08:45:44.725Z,20.56
2018-05-06T08:48:12.124Z,20.39
2018-05-06T08:50:39.616Z,20.84
2018-05-06T08:53:07.096Z,21.10
2018-05-06T08:55:34.576Z,20.88
2018-05-06T08:58:02.057Z,20.82
2018-05-06T09:00:29.515Z,20.70
2018-05-06T09:02:57.017Z,20.91
2018-05-06T09:05:24.472Z,20.72
2018-05-06T09:07:51.952Z,20.79
2018-05-06T09:10:19.444Z,21.14
2018-05-06T09:12:46.906Z,21.12
2018-05-06T09:15:14.388Z,20.96
2018-05-06T09:17:41.853Z,21.32
2018-05-06T09:20:09.311Z,21.11
2018-05-06T09:22:36.790Z,21.17
2018-05-06T09:25:04.253Z,21.30
2018-05-06T09:27:31.732Z,21.38
2018-05-06T09:29:59.202Z,21.90
2018-05-06T09:32:26.758Z,21.50
2018-05-06T09:34:54.167Z,21.86
2018-05-06T09:37:21.632Z,21.74
2018-05-06T09:39:49.107Z,22.00
2018-05-06T09:42:16.589Z,21.52
2018-05-06T09:44:44.066Z,21.88
2018-05-06T09:47:11.517Z,22.27
2018-05-06T09:49:39.031Z,22.57
2018-05-06T09:52:06.493Z,22.12
2018-05-06T09:54:33.957Z,22.64
2018-05-06T09:57:01.441Z,22.98
2018-05-06T09:59:28.906Z,23.28
2018-05-06T10:01:56.381Z,22.69
2018-05-06T10:04:23.850Z,22.68
2018-05-06T10:06:51.410Z,23.15
2018-05-06T10:09:18.882Z,23.46
2018-05-06T10:11:46.341Z,22.96
2018-05-06T10:14:13.812Z,23.04
2018-05-06T10:16:41.271Z,23.11
2018-05-06T10:19:08.740Z,23.73
2018-05-06T10:21:36.201Z,23.09
2018-05-06T10:24:03.648Z,23.33
2018-05-06T10:26:31.124Z,23.34
2018-05-06T10:28:58.585Z,23.99
2018-05-06T10:31:26.270Z,24.17
2018-05-06T10:33:53.727Z,24.45
2018-05-06T10:36:21.405Z,23.69
2018-05-06T10:38:48.875Z,23.68
2018-05-06T10:41:16.372Z,23.16
2018-05-06T10:43:43.874Z,23.16
2018-05-06T10:46:11.332Z,23.93
2018-05-06T10:48:39.020Z,24.38
2018-05-06T10:51:07.410Z,24.64
2018-05-06T10:53:34.880Z,23.88
2018-05-06T10:56:02.347Z,24.01
2018-05-06T10:58:29.815Z,24.21
2018-05-06T11:00:57.538Z,24.77
2018-05-06T11:03:25.009Z,23.61
2018-05-06T11:05:52.488Z,24.78
2018-05-06T11:08:19.980Z,25.19
2018-05-06T11:10:47.462Z,24.88
2018-05-06T11:13:14.954Z,24.66
2018-05-06T11:15:42.416Z,25.09
2018-05-06T11:18:09.877Z,24.67
2018-05-06T11:20:37.350Z,24.86
2018-05-06T11:23:04.815Z,25.84
2018-05-06T11:25:32.300Z,25.47
2018-05-06T11:27:59.765Z,25.60
2018-05-06T11:30:27.231Z,26.27
2018-05-06T11:32:54.705Z,26.30
2018-05-06T11:35:22.169Z,26.80
2018-05-06T11:37:49.670Z,27.11
2018-05-06T11:40:17.136Z,26.51
2018-05-06T11:42:44.594Z,26.73
2018-05-06T11:45:12.063Z,28.45
2018-05-06T11:47:39.547Z,28.08
2018-05-06T11:50:07.040Z,29.59
2018-05-06T11:52:34.510Z,27.77
2018-05-06T11:55:01.963Z,27.76
2018-05-06T11:57:29.456Z,28.45
2018-05-06T11:59:58.059Z,30.17
2018-05-06T12:02:25.563Z,30.22
2018-05-06T12:04:53.028Z,29.22
2018-05-06T12:07:20.486Z,29.86
2018-05-06T12:09:47.984Z,30.15
2018-05-06T12:12:15.462Z,31.00
2018-05-06T12:14:43.142Z,31.52
2018-05-06T12:17:10.642Z,29.27
2018-05-06T12:19:38.113Z,27.92
2018-05-06T12:22:07.097Z,26.66
2018-05-06T12:24:34.920Z,29.05
2018-05-06T12:27:03.214Z,28.12
2018-05-06T12:29:31.057Z,28.97
2018-05-06T12:31:59.173Z,29.90
2018-05-06T12:34:26.655Z,31.75
2018-05-06T12:36:54.223Z,30.54
2018-05-06T12:39:22.317Z,32.24
2018-05-06T12:41:49.843Z,31.40
2018-05-06T12:44:17.355Z,30.83
2018-05-06T12:46:44.816Z,29.84
2018-05-06T12:49:12.286Z,31.48
2018-05-06T12:51:40.547Z,33.13
2018-05-06T12:54:08.024Z,32.25
2018-05-06T12:56:36.056Z,27.92
2018-05-06T12:59:04.405Z,31.88
2018-05-06T13:01:31.861Z,29.81
2018-05-06T13:04:00.312Z,29.91
2018-05-06T13:06:28.457Z,32.89
2018-05-06T13:08:56.061Z,31.24
2018-05-06T13:11:23.588Z,30.81
2018-05-06T13:13:51.071Z,30.93
2018-05-06T13:16:18.559Z,28.55
2018-05-06T13:18:46.029Z,29.74
2018-05-06T13:21:13.508Z,29.00
2018-05-06T13:23:41.075Z,30.01
2018-05-06T13:26:08.528Z,29.83
2018-05-06T13:28:36.015Z,29.17
2018-05-06T13:31:03.498Z,29.96
2018-05-06T13:33:30.981Z,29.30
2018-05-06T13:35:58.433Z,29.04
2018-05-06T13:38:25.896Z,28.08
2018-05-06T13:40:53.409Z,27.67
2018-05-06T13:43:20.869Z,29.85
2018-05-06T13:45:48.347Z,28.32
2018-05-06T13:48:15.807Z,30.18
2018-05-06T13:50:43.306Z,29.52
2018-05-06T13:53:10.800Z,30.85
2018-05-06T13:55:38.567Z,29.36
2018-05-06T13:58:06.697Z,29.80
2018-05-06T14:00:34.151Z,28.09
2018-05-06T14:03:01.607Z,28.52
2018-05-06T14:05:29.086Z,29.73
2018-05-06T14:07:56.604Z,29.89
2018-05-06T14:10:24.106Z,29.11
2018-05-06T14:12:51.573Z,28.23
2018-05-06T14:15:19.035Z,30.50
2018-05-06T14:17:46.509Z,28.77
2018-05-06T14:20:13.964Z,29.09
2018-05-06T14:22:41.584Z,30.95
2018-05-06T14:25:09.042Z,32.09
2018-05-06T14:27:36.521Z,32.53
2018-05-06T14:30:04.026Z,31.62
2018-05-06T14:32:31.463Z,30.70
2018-05-06T14:34:58.946Z,29.69
2018-05-06T14:37:26.400Z,30.55
2018-05-06T14:39:53.883Z,30.80
2018-05-06T14:42:21.348Z,31.25
2018-05-06T14:44:48.835Z,29.23
2018-05-06T14:50:22.234Z,28.60
2018-05-06T14:52:49.867Z,29.19
2018-05-06T14:55:17.315Z,29.26
2018-05-06T14:57:44.780Z,29.23
2018-05-06T15:00:12.250Z,30.13
2018-05-06T15:02:39.759Z,30.65
2018-05-06T15:05:07.223Z,29.15
2018-05-06T15:07:34.684Z,30.59
2018-05-06T15:10:02.164Z,29.30
2018-05-06T15:12:29.632Z,28.98
2018-05-06T15:14:57.245Z,28.38
2018-05-06T15:17:24.715Z,29.45
2018-05-06T15:19:52.170Z,28.33
2018-05-06T15:22:19.648Z,31.71
2018-05-06T15:24:47.094Z,29.33
2018-05-06T15:27:14.565Z,31.32
2018-05-06T15:29:42.018Z,30.84
2018-05-06T15:32:09.823Z,31.47
2018-05-06T15:34:37.307Z,30.49
2018-05-06T15:37:04.758Z,30.86
2018-05-06T15:39:32.234Z,29.12
2018-05-06T15:41:59.693Z,29.45
2018-05-06T15:44:27.159Z,29.13
2018-05-06T15:46:54.624Z,30.69
2018-05-06T15:49:22.081Z,31.24
2018-05-06T15:51:50.036Z,29.78
2018-05-06T15:54:17.511Z,30.73
2018-05-06T15:56:44.967Z,28.74
2018-05-06T15:59:12.560Z,29.64
2018-05-06T16:01:40.019Z,30.22
2018-05-06T16:04:14.125Z,29.91
2018-05-06T16:06:41.650Z,31.85
2018-05-06T16:09:09.112Z,29.70
2018-05-06T16:11:36.581Z,29.62
2018-05-06T16:14:04.085Z,29.85
2018-05-06T16:16:31.569Z,29.24
2018-05-06T16:18:59.033Z,29.94
2018-05-06T16:21:26.511Z,29.13
2018-05-06T16:23:53.980Z,27.63
2018-05-06T16:26:21.471Z,28.25
2018-05-06T16:28:48.943Z,30.45
2018-05-06T16:31:16.412Z,30.12
2018-05-06T16:33:43.876Z,30.73
2018-05-06T16:36:11.664Z,28.64
2018-05-06T16:38:39.144Z,28.38
2018-05-06T16:41:06.617Z,28.77
2018-05-06T16:43:34.100Z,27.88
2018-05-06T16:46:01.570Z,28.38
2018-05-06T16:48:29.041Z,28.80
2018-05-06T16:50:56.528Z,26.16
2018-05-06T16:53:23.991Z,27.20
2018-05-06T16:55:51.476Z,28.76
2018-05-06T16:58:18.936Z,29.49
2018-05-06T17:00:46.417Z,29.24
2018-05-06T17:03:13.891Z,29.36
2018-05-06T17:05:41.355Z,30.08
2018-05-06T17:08:08.837Z,31.39
2018-05-06T17:10:36.355Z,31.71
2018-05-06T17:13:03.883Z,30.62
2018-05-06T17:15:31.447Z,30.26
2018-05-06T17:17:58.904Z,29.84
2018-05-06T17:20:26.388Z,28.60
2018-05-06T17:22:53.843Z,28.73
2018-05-06T17:25:21.329Z,29.44
2018-05-06T17:27:48.801Z,28.56
2018-05-06T17:30:16.293Z,29.37
2018-05-06T17:32:43.770Z,28.33
2018-05-06T17:35:11.223Z,27.84
2018-05-06T17:37:38.713Z,28.28
2018-05-06T17:40:06.184Z,28.05
2018-05-06T17:42:33.686Z,28.54
2018-05-06T17:45:01.153Z,27.80
2018-05-06T17:47:28.945Z,27.55
2018-05-06T17:49:56.462Z,26.74
2018-05-06T17:52:23.887Z,25.63
2018-05-06T17:54:51.376Z,25.69
2018-05-06T17:57:18.837Z,25.28
2018-05-06T17:59:46.307Z,25.85
2018-05-06T18:02:13.766Z,25.12
2018-05-06T18:04:41.239Z,24.29
2018-05-06T18:07:08.703Z,24.34
2018-05-06T18:09:36.156Z,24.26
2018-05-06T18:12:04.003Z,23.63
2018-05-06T18:14:31.468Z,23.01
2018-05-06T18:16:59.136Z,22.50
2018-05-06T18:19:26.619Z,22.36
2018-05-06T18:21:54.084Z,22.50
2018-05-06T18:24:21.822Z,22.19
2018-05-06T18:26:49.585Z,22.24
2018-05-06T18:29:17.080Z,22.11
2018-05-06T18:31:44.584Z,21.89
2018-05-06T18:34:12.280Z,21.78
2018-05-06T18:36:40.560Z,21.64
2018-05-06T18:39:08.016Z,21.62
2018-05-06T18:41:35.476Z,21.54
2018-05-06T18:44:02.944Z,21.33
2018-05-06T18:46:31.011Z,21.43
2018-05-06T18:48:58.502Z,21.33
2018-05-06T18:51:25.959Z,21.09
2018-05-06T18:53:53.432Z,21.15
2018-05-06T18:56:21.474Z,21.17
2018-05-06T18:58:48.925Z,20.93
2018-05-06T19:01:16.408Z,20.92
2018-05-06T19:03:43.859Z,20.77
2018-05-06T19:06:11.763Z,20.71
2018-05-06T19:08:39.240Z,20.61
2018-05-06T19:11:06.695Z,20.58
2018-05-06T19:13:34.170Z,20.53
2018-05-06T19:16:01.893Z,20.46
2018-05-06T19:18:29.360Z,20.61
2018-05-06T19:20:56.828Z,20.40
2018-05-06T19:23:24.396Z,20.23
2018-05-06T19:25:51.906Z,20.13
2018-05-06T19:28:19.415Z,20.08
2018-05-06T19:30:46.872Z,20.23
2018-05-06T19:33:14.705Z,20.18
2018-05-06T19:35:42.457Z,20.01
2018-05-06T19:38:09.929Z,20.02
2018-05-06T19:40:37.388Z,19.85
2018-05-06T19:43:05.022Z,19.71
2018-05-06T19:45:32.669Z,19.61
2018-05-06T19:48:00.720Z,19.56
2018-05-06T19:50:28.176Z,19.63
2018-05-06T19:52:55.644Z,19.48
2018-05-06T19:55:23.096Z,19.43
2018-05-06T19:57:50.581Z,19.36
2018-05-06T20:00:18.052Z,19.56
2018-05-06T20:02:45.515Z,19.52
2018-05-06T20:05:12.980Z,19.50
2018-05-06T20:07:40.434Z,19.50
2018-05-06T20:10:07.919Z,19.40
2018-05-06T20:12:35.544Z,19.44
2018-05-06T20:15:03.312Z,19.36
2018-05-06T20:17:30.817Z,19.29
2018-05-06T20:19:58.281Z,19.35
2018-05-06T20:22:25.753Z,19.36
2018-05-06T20:24:53.208Z,19.35
2018-05-06T20:27:20.675Z,19.20
2018-05-06T20:29:48.144Z,19.21
2018-05-06T20:32:15.613Z,19.05
2018-05-06T20:34:43.084Z,19.16
2018-05-06T20:37:10.603Z,19.00
2018-05-06T20:39:38.726Z,19.11
2018-05-06T20:42:06.208Z,18.96
2018-05-06T20:44:33.672Z,18.96
2018-05-06T20:47:01.147Z,18.81
2018-05-06T20:49:28.603Z,18.75
2018-05-06T20:51:56.073Z,18.67
2018-05-06T20:54:24.547Z,18.63
2018-05-06T20:56:51.999Z,18.58
2018-05-06T20:59:19.474Z,18.70
2018-05-06T21:01:46.961Z,18.64
2018-05-06T21:04:14.442Z,18.59
2018-05-06T21:06:41.920Z,18.54
2018-05-06T21:09:09.384Z,18.50
2018-05-06T21:11:36.902Z,18.38
2018-05-06T21:14:04.364Z,18.38
2018-05-06T21:16:31.836Z,18.29
2018-05-06T21:18:59.295Z,18.26
2018-05-06T21:21:26.754Z,18.16
2018-05-06T21:23:54.227Z,18.07
2018-05-06T21:26:21.700Z,18.21
2018-05-06T21:28:49.177Z,18.17
2018-05-06T21:31:16.680Z,18.17
2018-05-06T21:33:44.118Z,18.00
2018-05-06T21:36:11.599Z,18.04
2018-05-06T21:38:39.056Z,17.91
2018-05-06T21:41:06.809Z,17.86
2018-05-06T21:43:34.298Z,17.76
2018-05-06T21:46:01.744Z,17.95
2018-05-06T21:48:29.223Z,18.13
2018-05-06T21:50:56.683Z,17.99
2018-05-06T21:53:24.214Z,17.97
2018-05-06T21:55:51.643Z,17.93
2018-05-06T21:58:19.092Z,17.88
2018-05-06T22:00:46.573Z,17.89
2018-05-06T22:03:14.032Z,17.88
2018-05-06T22:05:41.509Z,17.84
2018-05-06T22:08:08.959Z,17.89
2018-05-06T22:10:36.463Z,17.75
2018-05-06T22:13:03.952Z,17.91
2018-05-06T22:15:31.424Z,17.89
2018-05-06T22:17:59.085Z,17.82
2018-05-06T22:20:26.593Z,17.71
2018-05-06T22:22:54.059Z,17.71
2018-05-06T22:25:21.539Z,17.78
2018-05-06T22:27:48.996Z,17.63
2018-05-06T22:30:16.734Z,17.73
2018-05-06T22:32:44.204Z,17.71
2018-05-06T22:35:11.672Z,17.75
2018-05-06T22:37:39.146Z,17.71
2018-05-06T22:40:06.605Z,17.62
2018-05-06T22:42:34.103Z,17.62
2018-05-06T22:45:01.742Z,17.58
2018-05-06T22:47:29.288Z,17.58
2018-05-06T22:49:56.759Z,17.45
2018-05-06T22:52:24.216Z,17.69
2018-05-06T22:54:51.689Z,17.50
2018-05-06T22:57:19.226Z,17.57
2018-05-06T22:59:46.776Z,17.44
2018-05-06T23:02:14.184Z,17.53
2018-05-06T23:04:41.648Z,17.44
2018-05-06T23:07:09.128Z,17.36
2018-05-06T23:09:36.584Z,17.32
2018-05-06T23:12:04.065Z,17.26
2018-05-06T23:14:31.527Z,17.28
2018-05-06T23:16:59.000Z,17.27
2018-05-06T23:19:26.448Z,17.29
2018-05-06T23:21:53.912Z,17.18
2018-05-06T23:24:21.376Z,17.08
2018-05-06T23:26:48.841Z,17.06
2018-05-06T23:29:16.397Z,17.08
2018-05-06T23:31:43.804Z,16.87
2018-05-06T23:34:11.276Z,17.15
2018-05-06T23:36:38.744Z,17.05
2018-05-06T23:39:06.205Z,16.99
2018-05-06T23:41:33.697Z,16.87
2018-05-06T23:44:01.148Z,16.81
2018-05-06T23:46:28.604Z,16.83
2018-05-06T23:48:56.076Z,16.78
2018-05-06T23:51:23.532Z,16.63
2018-05-06T23:53:51.020Z,16.56
2018-05-06T23:56:18.497Z,16.58
2018-05-06T23:58:46.050Z,16.53
